createdAt,value
2023-05-16T00:00:59.234Z,99661.00
2023-05-16T00:03:41.813Z,99653.20
2023-05-16T00:06:24.273Z,99650.80
2023-05-16T00:09:05.067Z,99654.40
2023-05-16T00:11:47.540Z,99651.20
2023-05-16T00:14:30.468Z,99649.80
2023-05-16T00:17:12.700Z,99647.80
2023-05-16T00:19:58.856Z,99641.60
2023-05-16T00:22:38.098Z,99634.80
2023-05-16T00:25:20.390Z,99629.20
2023-05-16T00:28:00.141Z,99623.80
2023-05-16T00:30:42.029Z,99620.20
2023-05-16T00:33:24.028Z,99620.00
2023-05-16T00:36:05.739Z,99615.00
2023-05-16T00:38:45.271Z,99604.20
2023-05-16T00:41:25.308Z,99605.80
2023-05-16T00:44:06.076Z,99600.40
2023-05-16T00:46:47.077Z,99601.40
2023-05-16T00:49:27.458Z,99600.00
2023-05-16T00:52:10.672Z,99598.40
2023-05-16T00:54:51.114Z,99595.40
2023-05-16T00:57:31.481Z,99596.00
2023-05-16T01:00:16.037Z,99596.80
2023-05-16T01:02:54.533Z,99597.80
2023-05-16T01:05:32.062Z,99597.60
2023-05-16T01:08:10.462Z,99591.80
2023-05-16T01:11:11.270Z,99589.40
2023-05-16T01:14:07.602Z,99592.40
2023-05-16T01:17:03.463Z,99589.60
2023-05-16T01:20:15.801Z,99586.80
2023-05-16T01:23:31.422Z,99591.80
2023-05-16T01:26:32.713Z,99586.00
2023-05-16T01:29:11.536Z,99588.20
2023-05-16T01:31:50.119Z,99580.40
2023-05-16T01:34:27.370Z,99577.80
2023-05-16T01:37:20.468Z,99577.40
2023-05-16T01:40:08.999Z,99571.00
2023-05-16T01:42:54.422Z,99563.00
2023-05-16T01:45:38.818Z,99561.60
2023-05-16T01:48:26.004Z,99549.40
2023-05-16T01:51:08.203Z,99549.20
2023-05-16T01:53:48.457Z,99542.60
2023-05-16T01:56:30.355Z,99538.20
2023-05-16T01:59:09.586Z,99529.80
2023-05-16T02:01:48.768Z,99524.00
2023-05-16T02:04:29.438Z,99522.00
2023-05-16T02:07:10.400Z,99521.40
2023-05-16T02:09:50.926Z,99519.20
2023-05-16T02:12:30.061Z,99519.40
2023-05-16T02:15:15.799Z,99513.80
2023-05-16T02:17:55.946Z,99515.40
2023-05-16T02:20:36.291Z,99511.00
2023-05-16T02:23:15.867Z,99509.40
2023-05-16T02:25:55.150Z,99512.80
2023-05-16T02:28:35.868Z,99512.40
2023-05-16T02:31:15.089Z,99514.80
2023-05-16T02:33:54.094Z,99508.80
2023-05-16T02:36:35.053Z,99512.40
2023-05-16T02:39:13.163Z,99504.00
2023-05-16T02:41:54.024Z,99513.40
2023-05-16T02:44:33.358Z,99499.20
2023-05-16T02:47:13.308Z,99493.80
2023-05-16T02:49:54.493Z,99490.00
2023-05-16T02:52:32.161Z,99481.40
2023-05-16T02:55:22.289Z,99478.80
2023-05-16T02:58:02.732Z,99464.20
2023-05-16T03:00:43.374Z,99457.20
2023-05-16T03:03:22.825Z,99466.80
2023-05-16T03:06:02.774Z,99461.20
2023-05-16T03:08:42.917Z,99459.00
2023-05-16T03:11:25.538Z,99463.60
2023-05-16T03:14:04.822Z,99458.60
2023-05-16T03:16:44.371Z,99455.00
2023-05-16T03:19:27.382Z,99467.00
2023-05-16T03:22:07.421Z,99447.00
2023-05-16T03:24:47.849Z,99460.60
2023-05-16T03:27:28.423Z,99451.40
2023-05-16T03:30:09.623Z,99441.40
2023-05-16T03:32:53.300Z,99443.20
2023-05-16T03:35:31.675Z,99434.40
2023-05-16T03:38:10.157Z,99435.80
2023-05-16T03:40:52.472Z,99454.20
2023-05-16T03:43:31.177Z,99443.40
2023-05-16T03:46:15.280Z,99446.80
2023-05-16T03:48:54.707Z,99444.80
2023-05-16T03:51:35.390Z,99441.40
2023-05-16T03:54:15.918Z,99447.20
2023-05-16T03:56:57.624Z,99438.60
2023-05-16T03:59:40.270Z,99426.80
2023-05-16T04:02:20.423Z,99439.20
2023-05-16T04:05:01.645Z,99436.60
2023-05-16T04:07:41.641Z,99433.60
2023-05-16T04:10:24.110Z,99431.80
2023-05-16T04:13:05.012Z,99427.80
2023-05-16T04:15:48.133Z,99421.60
2023-05-16T04:18:28.815Z,99425.20
2023-05-16T04:21:11.622Z,99420.20
2023-05-16T04:23:51.220Z,99430.60
2023-05-16T04:26:30.608Z,99437.20
2023-05-16T04:29:09.191Z,99439.20
2023-05-16T04:31:47.155Z,99448.60
2023-05-16T04:34:28.259Z,99424.00
2023-05-16T04:37:08.837Z,99434.60
2023-05-16T04:39:46.648Z,99439.60
2023-05-16T04:42:24.518Z,99429.40
2023-05-16T04:45:04.622Z,99435.00
2023-05-16T04:47:43.452Z,99437.20
2023-05-16T04:50:22.402Z,99436.00
2023-05-16T04:53:00.281Z,99440.40
2023-05-16T04:55:38.918Z,99446.40
2023-05-16T04:58:16.471Z,99452.60
2023-05-16T05:00:53.825Z,99456.80
2023-05-16T05:03:31.889Z,99453.20
2023-05-16T05:06:09.799Z,99456.80
2023-05-16T05:08:48.446Z,99461.20
2023-05-16T05:11:27.338Z,99458.00
2023-05-16T05:14:06.466Z,99456.00
2023-05-16T05:16:44.668Z,99459.00
2023-05-16T05:19:24.869Z,99460.80
2023-05-16T05:22:03.418Z,99468.00
2023-05-16T05:24:42.174Z,99470.60
2023-05-16T05:27:22.252Z,99466.60
2023-05-16T05:30:01.135Z,99463.80
2023-05-16T05:32:40.345Z,99449.80
2023-05-16T05:35:19.692Z,99448.80
2023-05-16T05:37:59.162Z,99441.60
2023-05-16T05:40:38.920Z,99438.80
2023-05-16T05:43:17.776Z,99437.80
2023-05-16T05:45:57.821Z,99432.80
2023-05-16T05:48:37.221Z,99426.60
2023-05-16T05:51:18.602Z,99433.00
2023-05-16T05:54:00.814Z,99439.00
2023-05-16T05:56:41.986Z,99445.20
2023-05-16T05:59:24.088Z,99453.80
2023-05-16T06:02:04.905Z,99428.20
2023-05-16T06:04:47.780Z,99413.80
2023-05-16T06:07:27.526Z,99416.40
2023-05-16T06:10:10.340Z,99420.80
2023-05-16T06:12:51.830Z,99420.00
2023-05-16T06:15:34.442Z,99427.00
2023-05-16T06:18:16.495Z,99432.00
2023-05-16T06:20:56.597Z,99429.00
2023-05-16T06:23:38.153Z,99432.60
2023-05-16T06:26:17.539Z,99434.80
2023-05-16T06:28:58.399Z,99438.60
2023-05-16T06:31:42.298Z,99440.80
2023-05-16T06:34:27.928Z,99439.20
2023-05-16T06:37:09.202Z,99430.00
2023-05-16T06:39:50.373Z,99433.00
2023-05-16T06:42:31.104Z,99433.60
2023-05-16T06:45:15.712Z,99429.80
2023-05-16T06:47:57.277Z,99423.40
2023-05-16T06:50:38.071Z,99432.00
2023-05-16T06:53:18.331Z,99431.40
2023-05-16T06:56:01.250Z,99425.20
2023-05-16T06:58:43.223Z,99432.80
2023-05-16T07:01:24.299Z,99436.00
2023-05-16T07:04:04.711Z,99447.80
2023-05-16T07:06:46.286Z,99450.80
2023-05-16T07:09:55.895Z,99455.60
2023-05-16T07:12:37.890Z,99453.40
2023-05-16T07:15:23.299Z,99447.60
2023-05-16T07:18:04.118Z,99446.40
2023-05-16T07:20:46.373Z,99453.60
2023-05-16T07:26:32.860Z,99468.60
2023-05-16T07:29:09.445Z,99470.00
2023-05-16T07:31:46.558Z,99475.40
2023-05-16T07:34:23.732Z,99483.60
2023-05-16T07:37:01.192Z,99486.40
2023-05-16T07:39:38.836Z,99488.00
2023-05-16T07:42:16.886Z,99490.20
2023-05-16T07:44:55.560Z,99496.20
2023-05-16T07:47:32.933Z,99503.20
2023-05-16T07:50:13.087Z,99503.40
2023-05-16T07:52:50.391Z,99504.00
2023-05-16T07:55:29.534Z,99510.40
2023-05-16T07:58:10.018Z,99520.20
2023-05-16T08:00:47.445Z,99524.20
2023-05-16T08:03:25.795Z,99512.60
2023-05-16T08:06:04.230Z,99504.40
2023-05-16T08:08:42.054Z,99488.00
2023-05-16T08:11:20.606Z,99479.80
2023-05-16T08:13:57.180Z,99472.80
2023-05-16T08:16:38.064Z,99475.00
2023-05-16T08:19:15.410Z,99476.20
2023-05-16T08:21:52.055Z,99481.20
2023-05-16T08:24:29.756Z,99489.60
2023-05-16T08:27:07.456Z,99484.60
2023-05-16T08:29:45.232Z,99490.00
2023-05-16T08:32:22.911Z,99491.80
2023-05-16T08:35:00.344Z,99486.40
2023-05-16T08:37:37.179Z,99479.00
2023-05-16T08:40:18.401Z,99479.20
2023-05-16T08:42:59.784Z,99479.80
2023-05-16T08:45:37.755Z,99491.80
2023-05-16T08:48:17.298Z,99489.80
2023-05-16T08:50:54.899Z,99483.60
2023-05-16T08:53:42.294Z,99483.00
2023-05-16T08:56:22.438Z,99486.00
2023-05-16T08:59:00.208Z,99485.80
2023-05-16T09:01:39.088Z,99492.60
2023-05-16T09:04:17.854Z,99491.60
2023-05-16T09:06:55.972Z,99490.20
2023-05-16T09:09:34.638Z,99481.80
2023-05-16T09:12:13.339Z,99483.20
2023-05-16T09:14:52.682Z,99480.40
2023-05-16T09:17:39.797Z,99474.40
2023-05-16T09:20:22.867Z,99468.20
2023-05-16T09:23:02.418Z,99475.40
2023-05-16T09:25:40.359Z,99477.20
2023-05-16T09:28:18.745Z,99480.00
2023-05-16T09:31:00.062Z,99475.40
2023-05-16T09:33:37.556Z,99481.20
2023-05-16T09:36:18.499Z,99478.20
2023-05-16T09:38:56.080Z,99464.60
2023-05-16T09:41:35.350Z,99437.60
2023-05-16T09:44:15.756Z,99428.20
2023-05-16T09:46:57.447Z,99422.00
2023-05-16T09:49:34.530Z,99418.60
2023-05-16T09:52:12.284Z,99416.80
2023-05-16T09:54:52.277Z,99426.60
2023-05-16T09:57:31.615Z,99436.40
2023-05-16T10:00:15.478Z,99440.40
2023-05-16T10:02:54.228Z,99435.80
2023-05-16T10:05:32.993Z,99440.80
2023-05-16T10:08:12.529Z,99438.80
2023-05-16T10:10:53.263Z,99445.40
2023-05-16T10:13:34.291Z,99437.20
2023-05-16T10:16:16.431Z,99459.20
2023-05-16T10:18:53.504Z,99452.00
2023-05-16T10:21:32.472Z,99450.00
2023-05-16T10:24:20.890Z,99459.80
2023-05-16T10:27:00.695Z,99460.60
2023-05-16T10:29:52.938Z,99461.80
2023-05-16T10:32:36.308Z,99465.40
2023-05-16T10:35:16.726Z,99469.80
2023-05-16T10:37:56.549Z,99471.80
2023-05-16T10:40:34.165Z,99481.00
2023-05-16T10:43:12.741Z,99476.40
2023-05-16T10:45:56.610Z,99475.40
2023-05-16T10:48:42.859Z,99491.20
2023-05-16T10:52:04.074Z,99483.40
2023-05-16T10:54:45.558Z,99485.60
2023-05-16T10:57:28.557Z,99479.40
2023-05-16T11:00:10.625Z,99472.60
2023-05-16T11:02:50.430Z,99458.40
2023-05-16T11:05:29.117Z,99454.40
2023-05-16T11:08:14.743Z,99448.20
2023-05-16T11:10:51.400Z,99452.60
2023-05-16T11:13:36.363Z,99445.60
2023-05-16T11:16:41.904Z,99445.80
2023-05-16T11:19:31.550Z,99438.20
2023-05-16T11:22:43.134Z,99435.00
2023-05-16T11:25:37.301Z,99443.20
2023-05-16T11:28:18.001Z,99436.20
2023-05-16T11:30:58.892Z,99443.00
2023-05-16T11:33:39.213Z,99442.20
2023-05-16T11:36:20.694Z,99449.80
2023-05-16T11:39:09.995Z,99453.80
2023-05-16T11:41:51.697Z,99458.20
2023-05-16T11:44:33.471Z,99453.80
2023-05-16T11:47:21.234Z,99450.60
2023-05-16T11:50:07.041Z,99451.80
2023-05-16T11:52:51.154Z,99451.80
2023-05-16T11:55:42.101Z,99446.00
2023-05-16T11:58:24.266Z,99447.60
2023-05-16T12:01:09.457Z,99443.40
2023-05-16T12:03:58.028Z,99440.20
2023-05-16T12:06:41.374Z,99439.60
2023-05-16T12:09:25.483Z,99434.00
2023-05-16T12:12:09.418Z,99428.80
2023-05-16T12:14:50.198Z,99422.00
2023-05-16T12:17:31.011Z,99416.40
2023-05-16T12:20:15.007Z,99417.20
2023-05-16T12:22:55.470Z,99414.00
2023-05-16T12:25:53.443Z,99416.80
2023-05-16T12:28:39.160Z,99421.80
2023-05-16T12:31:32.263Z,99428.00
2023-05-16T12:34:17.876Z,99423.40
2023-05-16T12:37:06.346Z,99423.80
2023-05-16T12:39:50.178Z,99414.20
2023-05-16T12:42:32.188Z,99401.40
2023-05-16T12:45:39.993Z,99395.80
2023-05-16T12:48:40.534Z,99398.40
2023-05-16T12:51:33.911Z,99395.40
2023-05-16T12:54:27.372Z,99399.80
2023-05-16T12:57:29.396Z,99394.00
2023-05-16T13:00:11.097Z,99400.80
2023-05-16T13:02:47.894Z,99405.20
2023-05-16T13:05:26.180Z,99411.00
2023-05-16T13:08:05.137Z,99414.60
2023-05-16T13:10:44.099Z,99409.20
2023-05-16T13:13:35.964Z,99412.40
2023-05-16T13:16:16.624Z,99417.40
2023-05-16T13:18:54.748Z,99404.40
2023-05-16T13:21:38.241Z,99407.60
2023-05-16T13:24:21.071Z,99398.40
2023-05-16T13:27:07.084Z,99397.20
2023-05-16T13:29:46.214Z,99397.20
2023-05-16T13:32:28.490Z,99401.60
2023-05-16T13:35:09.523Z,99400.60
2023-05-16T13:38:00.196Z,99406.60
2023-05-16T13:40:45.368Z,99400.60
2023-05-16T13:43:28.569Z,99391.00
2023-05-16T13:46:09.689Z,99389.60
2023-05-16T13:48:58.144Z,99391.20
2023-05-16T13:51:42.070Z,99398.00
2023-05-16T13:55:00.044Z,99396.40
2023-05-16T13:58:20.099Z,99399.80
2023-05-16T14:01:21.562Z,99396.40
2023-05-16T14:04:18.328Z,99394.20
2023-05-16T14:07:01.117Z,99392.80
2023-05-16T14:09:40.029Z,99399.20
2023-05-16T14:12:21.142Z,99397.60
2023-05-16T14:14:59.740Z,99402.20
2023-05-16T14:17:39.630Z,99401.40
2023-05-16T14:20:24.188Z,99402.80
2023-05-16T14:23:05.226Z,99404.60
2023-05-16T14:25:45.173Z,99407.60
2023-05-16T14:28:25.750Z,99421.80
2023-05-16T14:31:06.234Z,99405.00
2023-05-16T14:33:46.872Z,99406.80
2023-05-16T14:36:28.257Z,99405.40
2023-05-16T14:39:09.227Z,99404.00
2023-05-16T14:41:49.485Z,99402.60
2023-05-16T14:44:28.833Z,99400.20
2023-05-16T14:47:07.205Z,99401.00
2023-05-16T14:49:45.189Z,99402.80
2023-05-16T14:52:25.196Z,99409.20
2023-05-16T14:55:06.323Z,99415.00
2023-05-16T14:57:47.719Z,99410.40
2023-05-16T15:00:32.264Z,99413.60
2023-05-16T15:03:08.714Z,99417.20
2023-05-16T15:05:51.048Z,99414.20
2023-05-16T15:08:27.843Z,99420.60
2023-05-16T15:11:04.642Z,99420.00
2023-05-16T15:13:43.443Z,99418.20
2023-05-16T15:16:21.566Z,99412.60
2023-05-16T15:18:58.738Z,99416.60
2023-05-16T15:21:35.699Z,99411.40
2023-05-16T15:24:17.144Z,99412.00
2023-05-16T15:26:54.581Z,99417.00
2023-05-16T15:29:33.138Z,99413.00
2023-05-16T15:32:17.777Z,99413.00
2023-05-16T15:34:56.045Z,99417.00
2023-05-16T15:37:34.678Z,99414.40
2023-05-16T15:40:25.069Z,99417.00
2023-05-16T15:43:08.116Z,99418.80
2023-05-16T15:45:49.974Z,99416.20
2023-05-16T15:48:31.196Z,99416.00
2023-05-16T15:51:11.558Z,99413.80
2023-05-16T15:53:54.074Z,99413.60
2023-05-16T15:56:33.840Z,99413.60
2023-05-16T15:59:12.747Z,99418.80
2023-05-16T16:01:52.444Z,99418.00
2023-05-16T16:04:34.285Z,99422.80
2023-05-16T16:07:19.367Z,99424.20
2023-05-16T16:09:59.963Z,99424.80
2023-05-16T16:12:39.394Z,99427.20
2023-05-16T16:15:21.034Z,99431.40
2023-05-16T16:18:01.003Z,99433.20
2023-05-16T16:20:38.550Z,99433.20
2023-05-16T16:23:16.074Z,99433.40
2023-05-16T16:25:54.319Z,99435.60
2023-05-16T16:28:33.753Z,99435.40
2023-05-16T16:31:13.570Z,99436.80
2023-05-16T16:33:51.991Z,99438.60
2023-05-16T16:36:30.924Z,99442.20
2023-05-16T16:39:09.051Z,99442.20
2023-05-16T16:41:47.166Z,99440.60
2023-05-16T16:44:24.557Z,99443.80
2023-05-16T16:47:02.657Z,99445.60
2023-05-16T16:49:42.927Z,99446.00
2023-05-16T16:52:21.436Z,99447.00
2023-05-16T16:54:59.748Z,99447.80
2023-05-16T16:57:38.218Z,99453.00
2023-05-16T17:00:21.838Z,99458.40
2023-05-16T17:03:01.181Z,99465.40
2023-05-16T17:05:38.939Z,99469.20
2023-05-16T17:08:17.009Z,99472.80
2023-05-16T17:10:54.273Z,99478.00
2023-05-16T17:13:34.021Z,99477.60
2023-05-16T17:16:13.724Z,99479.20
2023-05-16T17:18:50.830Z,99480.80
2023-05-16T17:21:28.502Z,99482.60
2023-05-16T17:24:05.340Z,99479.00
2023-05-16T17:26:41.604Z,99482.80
2023-05-16T17:29:18.728Z,99481.40
2023-05-16T17:31:56.133Z,99485.20
2023-05-16T17:34:33.235Z,99479.00
2023-05-16T17:37:12.329Z,99481.40
2023-05-16T17:39:49.081Z,99485.40
2023-05-16T17:42:25.576Z,99489.00
2023-05-16T17:45:04.672Z,99489.00
2023-05-16T17:47:42.537Z,99496.20
2023-05-16T17:50:25.687Z,99495.00
2023-05-16T17:53:02.119Z,99493.80
2023-05-16T17:55:38.635Z,99496.60
2023-05-16T17:58:15.445Z,99498.60
2023-05-16T18:00:52.326Z,99501.00
2023-05-16T18:03:28.916Z,99508.20
2023-05-16T18:06:06.196Z,99510.60
2023-05-16T18:08:43.272Z,99517.60
2023-05-16T18:11:20.494Z,99522.00
2023-05-16T18:13:58.098Z,99529.20
2023-05-16T18:16:35.011Z,99528.40
2023-05-16T18:19:12.990Z,99536.00
2023-05-16T18:21:50.267Z,99538.60
2023-05-16T18:24:27.232Z,99545.00
2023-05-16T18:27:04.291Z,99550.60
2023-05-16T18:29:42.380Z,99552.00
2023-05-16T18:32:19.896Z,99554.80
2023-05-16T18:34:56.393Z,99554.40
2023-05-16T18:37:33.606Z,99560.80
2023-05-16T18:40:15.542Z,99559.60
2023-05-16T18:42:52.940Z,99569.40
2023-05-16T18:45:30.027Z,99573.40
2023-05-16T18:48:08.595Z,99575.40
2023-05-16T18:50:46.072Z,99577.40
2023-05-16T18:53:23.178Z,99585.20
2023-05-16T18:55:59.752Z,99588.60
2023-05-16T18:58:36.957Z,99588.40
2023-05-16T19:01:14.209Z,99584.40
2023-05-16T19:03:51.155Z,99586.60
2023-05-16T19:06:27.809Z,99593.60
2023-05-16T19:09:05.970Z,99595.60
2023-05-16T19:11:43.649Z,99595.80
2023-05-16T19:14:22.394Z,99602.60
2023-05-16T19:17:00.006Z,99605.40
2023-05-16T19:19:37.984Z,99608.00
2023-05-16T19:22:15.133Z,99616.00
2023-05-16T19:24:54.120Z,99615.60
2023-05-16T19:27:32.140Z,99617.00
2023-05-16T19:30:17.092Z,99621.20
2023-05-16T19:32:55.610Z,99627.40
2023-05-16T19:35:34.521Z,99634.40
2023-05-16T19:38:14.638Z,99633.40
2023-05-16T19:40:52.282Z,99637.40
2023-05-16T19:43:30.695Z,99641.40
2023-05-16T19:46:09.216Z,99651.20
2023-05-16T19:48:47.679Z,99653.00
2023-05-16T19:51:40.123Z,99663.80
2023-05-16T19:54:21.477Z,99668.00
2023-05-16T19:57:00.095Z,99665.60
2023-05-16T19:59:38.824Z,99672.80
2023-05-16T20:02:17.744Z,99672.80
2023-05-16T20:04:58.442Z,99673.20
2023-05-16T20:07:37.051Z,99680.80
2023-05-16T20:10:16.816Z,99685.20
2023-05-16T20:12:54.483Z,99688.20
2023-05-16T20:15:32.904Z,99689.80
2023-05-16T20:18:11.649Z,99690.60
2023-05-16T20:20:50.048Z,99694.00
2023-05-16T20:23:28.695Z,99690.20
2023-05-16T20:26:06.295Z,99690.20
2023-05-16T20:28:46.368Z,99692.00
2023-05-16T20:31:24.836Z,99693.60
2023-05-16T20:34:03.983Z,99691.40
2023-05-16T20:36:42.883Z,99689.40
2023-05-16T20:39:21.443Z,99692.00
2023-05-16T20:42:00.643Z,99689.20
2023-05-16T20:44:40.895Z,99688.80
2023-05-16T20:47:20.123Z,99687.00
2023-05-16T20:49:58.256Z,99684.60
2023-05-16T20:52:36.756Z,99680.40
2023-05-16T20:55:17.418Z,99682.40
2023-05-16T20:57:57.880Z,99680.00
2023-05-16T21:00:37.417Z,99678.80
2023-05-16T21:03:16.622Z,99673.00
2023-05-16T21:05:56.709Z,99672.00
2023-05-16T21:08:40.755Z,99671.20
2023-05-16T21:11:22.964Z,99668.20
2023-05-16T21:14:02.998Z,99665.60
2023-05-16T21:16:43.880Z,99670.60
2023-05-16T21:19:23.140Z,99667.00
2023-05-16T21:22:04.440Z,99668.60
2023-05-16T21:24:44.462Z,99674.20
2023-05-16T21:27:25.947Z,99672.80
2023-05-16T21:30:05.994Z,99668.00
2023-05-16T21:32:46.073Z,99669.00
2023-05-16T21:35:25.403Z,99676.80
2023-05-16T21:38:05.951Z,99677.00
2023-05-16T21:40:46.311Z,99676.60
2023-05-16T21:43:26.761Z,99683.00
2023-05-16T21:46:06.014Z,99690.60
2023-05-16T21:48:45.101Z,99696.80
2023-05-16T21:51:25.186Z,99697.60
2023-05-16T21:54:03.810Z,99697.60
2023-05-16T21:56:43.675Z,99702.80
2023-05-16T21:59:22.573Z,99702.40
2023-05-16T22:02:00.431Z,99707.60
2023-05-16T22:04:37.787Z,99716.00
2023-05-16T22:07:18.630Z,99720.20
2023-05-16T22:09:57.129Z,99719.00
2023-05-16T22:12:36.505Z,99722.40
2023-05-16T22:15:18.479Z,99726.80
2023-05-16T22:17:58.268Z,99726.60
2023-05-16T22:20:36.952Z,99731.40
2023-05-16T22:23:16.868Z,99735.60
2023-05-16T22:25:55.816Z,99739.60
2023-05-16T22:28:33.918Z,99745.60
2023-05-16T22:31:12.664Z,99746.40
2023-05-16T22:33:51.485Z,99748.80
2023-05-16T22:36:28.888Z,99747.20
2023-05-16T22:39:06.859Z,99746.20
2023-05-16T22:41:43.803Z,99749.80
2023-05-16T22:44:22.761Z,99744.60
2023-05-16T22:47:03.330Z,99743.80
2023-05-16T22:49:41.067Z,99736.40
2023-05-16T22:52:20.194Z,99733.00
2023-05-16T22:54:58.769Z,99725.20
2023-05-16T22:57:36.614Z,99723.20
2023-05-16T23:00:24.404Z,99721.60
2023-05-16T23:03:03.808Z,99717.40
2023-05-16T23:05:41.434Z,99725.40
2023-05-16T23:08:18.433Z,99732.80
2023-05-16T23:10:55.597Z,99737.20
2023-05-16T23:13:34.576Z,99734.40
2023-05-16T23:16:13.526Z,99727.60
2023-05-16T23:18:51.209Z,99722.40
2023-05-16T23:21:28.824Z,99726.20
2023-05-16T23:24:06.057Z,99727.80
2023-05-16T23:26:43.680Z,99723.60
2023-05-16T23:29:21.263Z,99720.60
2023-05-16T23:31:58.864Z,99726.40
2023-05-16T23:34:35.956Z,99725.00
2023-05-16T23:37:14.676Z,99721.80
2023-05-16T23:39:54.101Z,99726.40
2023-05-16T23:42:32.924Z,99731.60
2023-05-16T23:45:14.718Z,99733.60
2023-05-16T23:47:52.978Z,99735.80
2023-05-16T23:50:31.816Z,99733.60
2023-05-16T23:53:10.688Z,99736.40
2023-05-16T23:55:49.211Z,99728.40
2023-05-16T23:58:28.250Z,99724.80
